Time;durP1;ratioP1;P1;durP2;ratioP2;P2;SDS_P1;SDS_P2;PMS_P1;PMS_P2;Temp;Humidity;BMP_temperature;BMP_pressure;BME280_temperature;BME280_humidity;BME280_pressure;Samples;Min_cycle;Max_cycle;Signal;HPM_P1;HPM_P2
2022/04/21 00:00:06;;;;;;;6.63;3.63;;;9.50;95.20;;;;;;5008146;28;20114;-89
2022/04/21 00:02:33;;;;;;;5.68;3.72;;;9.50;95.20;;;;;;5016425;28;20033;-90
2022/04/21 00:04:59;;;;;;;6.70;3.25;;;9.40;95.30;;;;;;5016685;28;20141;-90
2022/04/21 00:07:25;;;;;;;8.02;3.83;;;9.30;95.30;;;;;;5014638;28;20394;-90
2022/04/21 00:09:51;;;;;;;6.18;3.72;;;9.30;95.40;;;;;;5010685;28;20022;-89
2022/04/21 00:12:16;;;;;;;8.40;3.92;;;9.30;95.50;;;;;;5002533;28;20448;-90
2022/04/21 00:14:42;;;;;;;6.75;3.50;;;9.20;95.60;;;;;;4998999;28;20038;-90
2022/04/21 00:17:08;;;;;;;11.43;3.90;;;9.10;95.90;;;;;;5010673;28;20511;-89
2022/04/21 00:19:34;;;;;;;7.90;4.38;;;9.10;96.20;;;;;;5005874;28;20026;-90
2022/04/21 00:24:44;;;;;;;7.20;4.60;;;8.90;96.40;;;;;;5034470;28;20476;-90
2022/04/21 00:27:09;;;;;;;8.77;3.53;;;8.90;96.50;;;;;;5016224;28;20014;-89
2022/04/21 00:29:35;;;;;;;7.70;3.95;;;8.80;96.60;;;;;;5017869;28;20064;-89
2022/04/21 00:32:01;;;;;;;6.90;4.15;;;8.80;96.60;;;;;;5012714;28;20063;-89
2022/04/21 00:34:26;;;;;;;8.52;3.95;;;8.80;96.60;;;;;;5013852;28;20079;-89
2022/04/21 00:36:52;;;;;;;6.72;3.80;;;8.70;96.70;;;;;;5000346;28;20486;-90
2022/04/21 00:39:17;;;;;;;9.25;3.97;;;8.70;96.80;;;;;;5008474;28;20142;-90
2022/04/21 00:41:43;;;;;;;9.95;3.83;;;8.70;96.80;;;;;;5017331;28;20116;-89
2022/04/21 00:44:09;;;;;;;6.18;3.42;;;8.60;96.90;;;;;;5008219;28;20044;-90
2022/04/21 00:46:38;;;;;;;6.85;4.03;;;8.60;96.90;;;;;;5016596;28;20477;-89
2022/04/21 00:49:05;;;;;;;7.70;4.50;;;8.60;97.10;;;;;;5017266;28;20026;-90
2022/04/21 00:51:31;;;;;;;7.18;3.58;;;8.50;97.20;;;;;;5022629;28;20056;-90
2022/04/21 00:53:57;;;;;;;5.55;3.97;;;8.50;97.30;;;;;;5021907;28;20036;-89
2022/04/21 00:56:23;;;;;;;7.25;4.03;;;8.50;97.30;;;;;;5017485;28;20030;-89
2022/04/21 00:58:49;;;;;;;6.32;3.75;;;8.50;97.30;;;;;;5016729;28;20099;-90
2022/04/21 01:03:59;;;;;;;8.60;4.20;;;8.50;97.30;;;;;;5027537;28;20103;-89
2022/04/21 01:06:25;;;;;;;6.32;3.90;;;8.50;97.20;;;;;;5011711;28;20485;-90
2022/04/21 01:08:50;;;;;;;7.13;4.22;;;8.50;97.30;;;;;;5011910;28;20041;-90
2022/04/21 01:11:17;;;;;;;8.38;3.72;;;8.40;97.40;;;;;;4997767;28;20120;-90
2022/04/21 01:13:42;;;;;;;5.72;3.53;;;8.40;97.40;;;;;;5009825;28;20029;-90
2022/04/21 01:16:08;;;;;;;9.10;4.10;;;8.40;97.40;;;;;;5007756;28;20056;-88
2022/04/21 01:18:34;;;;;;;6.78;3.88;;;8.40;97.50;;;;;;4997636;28;20561;-89
2022/04/21 01:20:59;;;;;;;8.18;3.83;;;8.40;97.60;;;;;;5011595;28;20689;-89
2022/04/21 01:23:25;;;;;;;6.40;4.00;;;8.40;97.50;;;;;;5018019;28;20069;-90
2022/04/21 01:25:51;;;;;;;7.38;4.38;;;8.30;97.60;;;;;;5017365;28;20075;-89
2022/04/21 01:28:17;;;;;;;7.40;4.38;;;8.40;97.60;;;;;;5003385;28;20041;-90
2022/04/21 01:30:43;;;;;;;5.88;3.88;;;8.30;97.70;;;;;;5019691;28;20383;-90
2022/04/21 01:33:09;;;;;;;6.38;3.80;;;8.20;97.80;;;;;;5014787;28;20034;-89
2022/04/21 01:35:35;;;;;;;5.60;3.67;;;8.20;97.90;;;;;;5016737;28;20495;-90
2022/04/21 01:43:28;;;;;;;5.82;4.30;;;8.10;98.20;;;;;;5033403;28;20090;-90
2022/04/21 01:45:53;;;;;;;9.45;5.22;;;8.00;98.30;;;;;;5021482;28;20084;-88
2022/04/21 01:48:19;;;;;;;6.75;3.58;;;8.00;98.30;;;;;;5009279;28;20035;-89
2022/04/21 01:50:45;;;;;;;6.57;3.63;;;8.00;98.30;;;;;;5012833;28;20022;-90
2022/04/21 01:53:10;;;;;;;7.03;4.57;;;8.00;98.20;;;;;;5014213;28;20039;-90
2022/04/21 01:55:36;;;;;;;6.07;3.80;;;8.00;98.20;;;;;;5009927;28;20032;-89
2022/04/21 01:58:01;;;;;;;7.53;4.82;;;8.00;98.10;;;;;;5009961;28;20038;-90
2022/04/21 02:00:27;;;;;;;6.53;3.65;;;8.00;98.10;;;;;;5008896;28;20053;-89
2022/04/21 02:02:53;;;;;;;6.78;3.50;;;8.00;98.10;;;;;;5019442;28;20037;-90
2022/04/21 02:05:18;;;;;;;7.45;4.13;;;8.10;98.10;;;;;;5011138;28;20092;-90
2022/04/21 02:07:44;;;;;;;6.95;3.85;;;8.00;98.20;;;;;;5003842;28;20022;-90
2022/04/21 02:10:12;;;;;;;8.93;4.22;;;8.00;98.20;;;;;;5012942;28;20512;-90
2022/04/21 02:12:38;;;;;;;9.18;5.10;;;8.00;98.20;;;;;;5012064;28;20066;-90
2022/04/21 02:15:06;;;;;;;6.85;4.43;;;8.00;98.60;;;;;;5011471;28;20030;-89
2022/04/21 02:17:32;;;;;;;7.53;4.53;;;8.00;98.80;;;;;;5007196;28;20049;-90
2022/04/21 02:19:57;;;;;;;7.18;4.85;;;8.00;98.90;;;;;;5006963;28;20160;-90
2022/04/21 02:22:23;;;;;;;7.53;4.97;;;8.00;99.10;;;;;;5002249;28;20129;-89
2022/04/21 02:24:48;;;;;;;10.75;4.93;;;7.90;99.30;;;;;;5006745;28;20104;-88
2022/04/21 02:27:14;;;;;;;10.13;5.18;;;8.00;99.60;;;;;;5011763;28;20535;-88
2022/04/21 02:29:39;;;;;;;8.50;4.97;;;7.90;99.70;;;;;;5011952;28;20026;-88
2022/04/21 02:32:05;;;;;;;12.32;5.40;;;7.90;99.90;;;;;;5008549;28;20037;-88
2022/04/21 02:34:31;;;;;;;9.20;5.28;;;7.90;99.90;;;;;;5007844;28;20036;-89
2022/04/21 02:36:57;;;;;;;10.93;5.65;;;7.80;99.90;;;;;;5008834;28;20144;-90
2022/04/21 02:39:24;;;;;;;10.02;5.55;;;7.70;99.90;;;;;;5010251;28;20030;-90
2022/04/21 02:41:49;;;;;;;10.38;5.38;;;7.70;99.90;;;;;;5008667;28;20034;-91
2022/04/21 02:44:15;;;;;;;10.40;6.00;;;7.70;99.90;;;;;;5004118;28;20125;-90
2022/04/21 02:46:41;;;;;;;9.98;5.93;;;7.60;99.90;;;;;;5001751;28;20030;-90
2022/04/21 02:49:06;;;;;;;10.18;4.97;;;7.60;99.90;;;;;;5009419;28;20034;-90
2022/04/21 02:51:34;;;;;;;10.05;5.65;;;7.60;99.90;;;;;;4996102;28;20458;-90
2022/04/21 02:59:29;;;;;;;10.80;5.70;;;7.40;99.90;;;;;;5009948;28;20056;-90
2022/04/21 03:01:54;;;;;;;6.82;4.47;;;7.30;99.90;;;;;;5012028;28;20022;-90
2022/04/21 03:04:20;;;;;;;8.52;6.05;;;7.30;99.90;;;;;;5014931;28;20048;-89
2022/04/21 03:06:46;;;;;;;8.93;5.50;;;7.30;99.90;;;;;;5006445;28;20033;-90
2022/04/21 03:09:11;;;;;;;8.23;5.55;;;7.30;99.90;;;;;;5014522;28;20026;-91
2022/04/21 03:11:37;;;;;;;11.50;5.72;;;7.30;99.90;;;;;;5011639;28;20026;-90
2022/04/21 03:14:02;;;;;;;9.60;6.15;;;7.30;99.90;;;;;;5002511;28;20117;-90
2022/04/21 03:16:28;;;;;;;9.57;5.47;;;7.30;99.90;;;;;;5007062;28;20037;-90
2022/04/21 03:18:53;;;;;;;11.68;7.07;;;7.20;99.90;;;;;;5014853;28;20607;-90
2022/04/21 03:24:21;;;;;;;11.13;6.03;;;7.10;99.90;;;;;;5015986;28;20406;-91
2022/04/21 03:26:52;;;;;;;8.70;5.63;;;7.10;99.90;;;;;;5008673;28;20026;-90
2022/04/21 03:29:18;;;;;;;9.02;6.15;;;7.00;99.90;;;;;;5010914;28;20036;-90
2022/04/21 03:31:44;;;;;;;7.50;5.22;;;7.00;99.90;;;;;;5012295;28;20026;-90
2022/04/21 03:34:14;;;;;;;11.32;6.47;;;7.00;99.90;;;;;;5008881;28;20098;-89
2022/04/21 03:36:48;;;;;;;10.18;5.40;;;6.90;99.90;;;;;;5031348;28;20057;-91
2022/04/21 03:39:18;;;;;;;8.38;5.95;;;6.90;99.90;;;;;;5012792;28;20029;-89
2022/04/21 03:41:43;;;;;;;15.80;7.03;;;6.90;99.90;;;;;;5014463;28;20026;-89
2022/04/21 03:44:11;;;;;;;9.52;5.85;;;7.00;99.90;;;;;;5014195;28;20832;-90
2022/04/21 03:46:38;;;;;;;12.07;6.50;;;7.00;99.90;;;;;;5007924;28;20022;-90
2022/04/21 03:49:04;;;;;;;9.27;6.20;;;7.00;99.90;;;;;;5013372;28;20095;-89
2022/04/21 03:51:31;;;;;;;8.43;5.78;;;7.00;99.90;;;;;;5003825;28;20026;-90
2022/04/21 03:53:57;;;;;;;10.30;6.43;;;7.00;99.90;;;;;;5013577;28;20034;-90
2022/04/21 03:56:22;;;;;;;8.98;5.53;;;7.00;99.90;;;;;;5003621;28;20022;-90
2022/04/21 03:58:48;;;;;;;10.93;5.90;;;7.00;99.90;;;;;;5010879;28;20019;-90
2022/04/21 04:01:14;;;;;;;10.38;6.20;;;7.00;99.90;;;;;;5011716;28;20057;-90
2022/04/21 04:03:39;;;;;;;10.60;6.78;;;7.00;99.90;;;;;;5030787;28;20045;-90
2022/04/21 04:10:51;;;;;;;8.52;5.40;;;7.00;99.90;;;;;;5013475;28;20038;-91
2022/04/21 04:11:37;;;;;;;9.65;5.65;;;7.00;99.90;;;;;;5003417;28;20073;-90
2022/04/21 04:14:05;;;;;;;9.38;5.90;;;7.00;99.90;;;;;;5004063;28;20022;-90
2022/04/21 04:16:35;;;;;;;8.38;6.03;;;7.00;99.90;;;;;;5002620;28;20556;-90
2022/04/21 04:19:03;;;;;;;10.52;6.72;;;6.90;99.90;;;;;;5004802;28;20072;-90
2022/04/21 04:21:29;;;;;;;9.43;5.88;;;6.90;99.90;;;;;;5012222;28;20054;-90
2022/04/21 04:23:54;;;;;;;13.38;6.63;;;6.80;99.90;;;;;;5013225;28;20072;-89
2022/04/21 04:26:20;;;;;;;10.35;5.93;;;6.80;99.90;;;;;;5001587;28;20032;-90
2022/04/21 04:28:45;;;;;;;10.52;6.20;;;6.80;99.90;;;;;;5009523;28;20025;-90
2022/04/21 04:31:11;;;;;;;10.52;5.90;;;6.80;99.90;;;;;;5002203;28;21886;-90
2022/04/21 04:33:36;;;;;;;9.63;5.88;;;6.80;99.90;;;;;;5002103;28;20026;-90
2022/04/21 04:36:03;;;;;;;8.95;5.70;;;6.80;99.90;;;;;;5007768;28;20050;-89
2022/04/21 04:38:29;;;;;;;7.55;5.50;;;6.80;99.90;;;;;;5011316;28;20113;-89
2022/04/21 04:40:55;;;;;;;10.57;6.97;;;6.80;99.90;;;;;;5014094;28;20068;-90
2022/04/21 04:43:22;;;;;;;10.73;5.93;;;6.80;99.90;;;;;;4998521;28;20036;-90
2022/04/21 04:48:31;;;;;;;10.00;5.40;;;6.80;99.90;;;;;;5015118;28;20095;-90
2022/04/21 04:50:57;;;;;;;8.88;5.43;;;6.80;99.90;;;;;;5010285;28;20018;-90
2022/04/21 04:53:22;;;;;;;11.55;6.03;;;6.80;99.90;;;;;;5007550;28;20044;-90
2022/04/21 04:55:48;;;;;;;10.85;6.60;;;6.80;99.90;;;;;;5005824;28;20026;-90
2022/04/21 04:58:13;;;;;;;10.43;6.45;;;6.80;99.90;;;;;;5011237;28;20391;-89
2022/04/21 05:00:39;;;;;;;12.75;6.80;;;6.90;99.90;;;;;;5006514;28;20463;-89
2022/04/21 05:03:04;;;;;;;11.73;6.05;;;6.90;99.90;;;;;;5012127;28;20069;-90
2022/04/21 05:05:30;;;;;;;10.75;6.03;;;6.90;99.90;;;;;;5006794;28;20073;-90
2022/04/21 05:07:56;;;;;;;13.15;7.45;;;6.90;99.90;;;;;;5006442;28;20057;-90
2022/04/21 05:10:23;;;;;;;9.93;5.93;;;7.00;99.90;;;;;;5013632;28;20060;-89
2022/04/21 05:12:48;;;;;;;10.77;5.90;;;7.00;99.90;;;;;;5003215;28;20030;-88
2022/04/21 05:15:14;;;;;;;14.10;6.93;;;7.10;99.90;;;;;;5003311;28;20069;-89
2022/04/21 05:17:40;;;;;;;18.08;7.88;;;7.30;99.90;;;;;;5006171;28;20113;-89
2022/04/21 05:20:06;;;;;;;10.82;6.93;;;7.40;99.90;;;;;;5008796;28;20026;-90
2022/04/21 05:22:37;;;;;;;10.93;6.85;;;7.50;99.90;;;;;;5007188;28;20037;-89
2022/04/21 05:25:07;;;;;;;12.20;6.32;;;7.60;99.90;;;;;;5026266;28;20037;-90
2022/04/21 05:27:33;;;;;;;13.18;6.47;;;7.70;99.90;;;;;;5010655;28;20466;-89
2022/04/21 05:32:48;;;;;;;9.80;6.43;;;7.80;99.90;;;;;;5004114;28;20029;-90
2022/04/21 05:35:16;;;;;;;10.25;6.28;;;7.80;99.90;;;;;;5001693;28;20033;-90
2022/04/21 05:37:41;;;;;;;9.90;6.53;;;7.90;99.90;;;;;;5001110;28;20096;-90
2022/04/21 05:40:08;;;;;;;11.52;5.90;;;7.90;99.90;;;;;;5015315;28;20500;-89
2022/04/21 05:42:35;;;;;;;12.30;6.93;;;7.90;99.90;;;;;;5010183;28;20038;-90
2022/04/21 05:45:02;;;;;;;11.60;6.43;;;8.00;99.90;;;;;;5014171;28;20029;-89
2022/04/21 05:47:28;;;;;;;8.48;5.65;;;8.00;99.90;;;;;;5003981;28;20074;-90
2022/04/21 05:49:54;;;;;;;9.23;5.97;;;8.10;99.90;;;;;;5007751;28;20144;-90
2022/04/21 05:52:23;;;;;;;11.98;6.32;;;8.10;99.90;;;;;;5003129;28;20474;-90
2022/04/21 05:54:49;;;;;;;8.60;5.15;;;8.20;99.90;;;;;;5000961;28;20026;-90
2022/04/21 05:57:14;;;;;;;9.98;5.72;;;8.30;99.90;;;;;;5010856;28;20034;-90
2022/04/21 05:59:40;;;;;;;8.00;5.43;;;8.40;99.90;;;;;;5010712;28;20029;-90
2022/04/21 06:02:08;;;;;;;10.48;5.20;;;8.50;99.90;;;;;;5006757;28;20048;-90
2022/04/21 06:04:33;;;;;;;7.25;5.30;;;8.60;99.90;;;;;;5009672;28;20050;-90
2022/04/21 06:06:59;;;;;;;8.77;5.53;;;8.70;99.90;;;;;;5003898;28;20516;-92
2022/04/21 06:09:24;;;;;;;7.13;5.13;;;8.70;99.90;;;;;;5013449;28;20080;-90
2022/04/21 06:11:50;;;;;;;10.32;5.60;;;8.80;99.90;;;;;;5013234;28;20030;-90
2022/04/21 06:14:16;;;;;;;7.43;4.95;;;8.80;99.90;;;;;;5013098;28;20052;-90
2022/04/21 06:16:41;;;;;;;8.55;5.97;;;8.80;99.90;;;;;;5012967;28;20037;-90
2022/04/21 06:19:07;;;;;;;11.90;5.00;;;8.90;99.90;;;;;;5012645;28;20029;-90
2022/04/21 06:21:32;;;;;;;8.55;5.30;;;9.00;99.90;;;;;;5012821;28;20026;-90
2022/04/21 06:23:58;;;;;;;9.85;4.60;;;9.00;99.90;;;;;;5006725;28;20150;-89
2022/04/21 06:26:25;;;;;;;7.15;4.72;;;9.10;99.90;;;;;;5013047;28;20057;-90
2022/04/21 06:28:51;;;;;;;7.97;4.97;;;9.20;99.90;;;;;;5005637;28;20038;-89
2022/04/21 06:31:17;;;;;;;8.45;4.80;;;9.30;99.90;;;;;;5012389;28;20398;-90
2022/04/21 06:33:43;;;;;;;7.18;4.95;;;9.30;99.90;;;;;;4996185;28;20033;-91
2022/04/21 06:36:08;;;;;;;6.93;4.95;;;9.40;99.90;;;;;;5011255;28;20022;-89
2022/04/21 06:38:34;;;;;;;7.43;4.43;;;9.60;99.90;;;;;;5012614;28;20013;-90
2022/04/21 06:41:01;;;;;;;7.88;4.85;;;9.60;99.90;;;;;;5012372;28;20750;-91
2022/04/21 06:48:54;;;;;;;9.05;4.68;;;9.90;99.90;;;;;;5012108;28;20056;-91
2022/04/21 06:51:20;;;;;;;7.22;4.40;;;9.90;99.90;;;;;;5011548;28;20018;-90
2022/04/21 06:53:45;;;;;;;7.20;4.32;;;10.10;99.90;;;;;;5012328;28;20422;-90
2022/04/21 06:56:11;;;;;;;7.80;4.13;;;10.10;99.90;;;;;;5012372;28;20414;-90
2022/04/21 06:58:37;;;;;;;8.52;4.10;;;10.20;99.90;;;;;;5010827;28;20038;-90
2022/04/21 07:01:03;;;;;;;5.63;3.45;;;10.20;99.90;;;;;;5012414;28;20029;-91
2022/04/21 07:03:29;;;;;;;6.68;4.00;;;10.30;99.90;;;;;;5003939;28;20120;-88
2022/04/21 07:05:55;;;;;;;7.38;3.80;;;10.40;99.90;;;;;;5008633;28;20093;-89
2022/04/21 07:08:22;;;;;;;7.63;3.75;;;10.40;99.90;;;;;;5011343;28;20026;-89
2022/04/21 07:10:47;;;;;;;5.85;3.60;;;10.50;99.90;;;;;;5010563;28;20026;-90
2022/04/21 07:13:13;;;;;;;5.28;3.28;;;10.60;99.90;;;;;;5010742;28;20164;-89
2022/04/21 07:15:43;;;;;;;4.30;3.65;;;10.70;99.90;;;;;;5012202;28;20248;-88
2022/04/21 07:18:10;;;;;;;6.90;3.83;;;10.70;99.90;;;;;;5026981;28;20474;-89
2022/04/21 07:20:35;;;;;;;6.38;3.30;;;10.80;99.90;;;;;;5012197;28;20026;-88
2022/04/21 07:23:01;;;;;;;7.85;3.78;;;10.90;99.90;;;;;;5007354;28;20050;-88
2022/04/21 07:25:27;;;;;;;6.15;3.50;;;11.00;99.90;;;;;;5001232;28;20033;-89
2022/04/21 07:27:54;;;;;;;5.82;3.55;;;11.10;99.90;;;;;;5008940;28;20038;-89
2022/04/21 07:30:19;;;;;;;5.05;3.33;;;11.30;99.90;;;;;;5008868;28;20053;-89
2022/04/21 07:32:45;;;;;;;6.57;3.80;;;11.40;99.90;;;;;;5009096;28;20058;-89
2022/04/21 07:35:11;;;;;;;6.00;3.47;;;11.50;99.90;;;;;;5009800;28;20030;-88
2022/04/21 07:37:37;;;;;;;6.25;3.67;;;11.60;99.90;;;;;;5010004;28;20026;-89
2022/04/21 07:40:04;;;;;;;5.43;3.83;;;11.60;99.90;;;;;;5010762;28;20138;-89
2022/04/21 07:42:30;;;;;;;7.80;3.88;;;11.70;99.50;;;;;;5010555;28;20034;-89
2022/04/21 07:44:59;;;;;;;9.82;5.07;;;11.80;99.30;;;;;;5001530;28;20117;-89
2022/04/21 07:47:25;;;;;;;8.35;4.22;;;11.90;98.50;;;;;;5009492;28;20549;-89
2022/04/21 07:49:51;;;;;;;9.13;4.07;;;11.90;98.10;;;;;;5006724;28;20033;-89
2022/04/21 07:55:14;;;;;;;4.82;3.60;;;12.20;98.20;;;;;;5010320;28;20111;-90
2022/04/21 07:57:41;;;;;;;5.20;3.15;;;12.20;97.10;;;;;;5014419;28;20365;-88
2022/04/21 08:00:07;;;;;;;5.53;3.13;;;12.30;96.90;;;;;;5014330;28;20030;-89
2022/04/21 08:02:32;;;;;;;4.88;3.03;;;12.30;96.70;;;;;;5004363;28;20045;-89
2022/04/21 08:04:58;;;;;;;4.68;3.40;;;12.40;96.00;;;;;;5003954;28;20080;-89
2022/04/21 08:07:23;;;;;;;4.93;2.78;;;12.50;95.90;;;;;;5005850;28;20048;-90
2022/04/21 08:09:49;;;;;;;4.88;2.10;;;12.60;95.80;;;;;;5014260;28;20034;-89
2022/04/21 08:12:15;;;;;;;4.78;2.35;;;12.70;95.40;;;;;;5013394;28;20030;-88
2022/04/21 08:14:40;;;;;;;3.78;2.03;;;12.70;94.00;;;;;;5013986;28;20033;-89
2022/04/21 08:17:06;;;;;;;8.05;2.42;;;12.70;93.50;;;;;;5009663;28;20033;-89
2022/04/21 08:19:32;;;;;;;7.90;1.90;;;12.70;93.10;;;;;;5010531;28;20030;-87
2022/04/21 08:21:58;;;;;;;6.95;2.10;;;12.80;92.60;;;;;;5014839;28;20487;-89
2022/04/21 08:32:43;;;;;;;9.63;3.88;;;13.10;91.20;;;;;;5016397;28;20044;-88
2022/04/21 08:35:15;;;;;;;4.88;1.58;;;13.20;90.90;;;;;;5013198;28;20033;-88
2022/04/21 08:37:42;;;;;;;2.70;1.55;;;13.40;90.50;;;;;;5013476;28;20029;-89
2022/04/21 08:40:11;;;;;;;5.57;1.52;;;13.50;87.20;;;;;;5013652;28;20037;-88
2022/04/21 08:42:39;;;;;;;4.63;1.40;;;13.60;86.70;;;;;;5014099;28;20041;-89
2022/04/21 08:45:12;;;;;;;3.67;1.60;;;13.70;83.50;;;;;;5014087;28;20025;-88
2022/04/21 08:47:40;;;;;;;3.00;1.23;;;13.70;80.80;;;;;;5013766;28;20064;-89
2022/04/21 08:50:14;;;;;;;4.63;0.90;;;13.60;81.90;;;;;;5014283;28;20087;-88
2022/04/21 08:52:41;;;;;;;3.78;1.10;;;13.80;81.10;;;;;;5013184;28;20029;-88
2022/04/21 08:55:08;;;;;;;3.63;1.05;;;13.90;79.80;;;;;;5010555;28;20608;-88
2022/04/21 08:57:37;;;;;;;4.47;0.80;;;14.00;81.00;;;;;;5013060;28;20026;-90
2022/04/21 09:00:08;;;;;;;2.50;1.08;;;14.20;79.50;;;;;;4995391;28;20104;-90
2022/04/21 09:02:44;;;;;;;7.15;1.10;;;14.20;78.00;;;;;;5011233;28;20030;-90
2022/04/21 09:05:10;;;;;;;2.75;1.15;;;14.20;76.80;;;;;;5026744;28;20402;-90
2022/04/21 09:07:52;;;;;;;2.78;0.90;;;14.30;77.20;;;;;;5005924;28;20033;-90
2022/04/21 09:10:19;;;;;;;2.35;1.00;;;14.40;76.50;;;;;;5003341;28;20030;-91
2022/04/21 09:12:52;;;;;;;1.60;0.85;;;14.40;75.20;;;;;;5012927;28;20135;-90
2022/04/21 09:15:20;;;;;;;2.67;1.08;;;14.40;72.10;;;;;;5011781;28;20026;-90
2022/04/21 09:17:53;;;;;;;3.45;0.60;;;14.30;71.10;;;;;;4993458;28;20116;-90
2022/04/21 09:20:24;;;;;;;2.88;0.70;;;14.30;72.40;;;;;;5010093;28;20037;-91
2022/04/21 09:22:55;;;;;;;3.08;0.90;;;14.40;71.00;;;;;;5011100;28;20052;-90
2022/04/21 09:25:47;;;;;;;1.52;0.70;;;14.50;71.00;;;;;;5013123;28;20018;-90
2022/04/21 09:28:24;;;;;;;2.92;0.90;;;14.60;70.50;;;;;;4996130;28;20034;-90
2022/04/21 09:30:51;;;;;;;1.58;0.75;;;14.60;70.00;;;;;;5011331;28;20031;-89
2022/04/21 09:33:32;;;;;;;2.92;0.70;;;14.60;68.00;;;;;;5009613;28;20109;-90
2022/04/21 09:36:03;;;;;;;2.95;0.73;;;14.70;68.60;;;;;;5010372;28;20030;-90
2022/04/21 09:38:29;;;;;;;3.08;0.80;;;14.80;68.30;;;;;;5012509;28;20030;-90
2022/04/21 09:40:55;;;;;;;3.25;1.10;;;14.90;67.80;;;;;;5011478;28;20049;-89
2022/04/21 09:43:29;;;;;;;2.55;0.88;;;14.90;69.30;;;;;;5011630;28;20042;-90
2022/04/21 09:46:11;;;;;;;6.68;1.02;;;15.10;68.70;;;;;;5011031;28;20449;-90
2022/04/21 09:48:37;;;;;;;2.75;0.73;;;15.20;68.40;;;;;;5002030;28;20100;-89
2022/04/21 09:51:12;;;;;;;6.22;1.10;;;15.30;68.70;;;;;;5012457;28;20034;-90
2022/04/21 09:54:16;;;;;;;3.70;0.85;;;15.30;68.50;;;;;;5010836;28;20087;-90
2022/04/21 09:56:42;;;;;;;2.63;1.00;;;15.40;68.90;;;;;;4936987;29;20045;-90
2022/04/21 09:59:13;;;;;;;1.95;0.80;;;15.40;66.90;;;;;;4996797;28;20116;-90
2022/04/21 10:01:41;;;;;;;2.45;1.13;;;15.40;66.20;;;;;;5000438;28;20065;-90
2022/04/21 10:04:11;;;;;;;1.60;0.73;;;15.40;65.90;;;;;;5007774;28;20033;-91
2022/04/21 10:06:42;;;;;;;2.38;0.80;;;15.40;65.80;;;;;;5013122;28;20049;-90
2022/04/21 10:09:09;;;;;;;1.83;0.77;;;15.40;65.60;;;;;;4997463;28;20123;-90
2022/04/21 10:11:38;;;;;;;2.53;1.23;;;15.50;64.60;;;;;;5005928;28;20026;-89
2022/04/21 10:14:05;;;;;;;1.25;0.57;;;15.50;63.00;;;;;;5006986;28;20385;-90
2022/04/21 10:16:31;;;;;;;5.20;0.70;;;15.50;63.50;;;;;;5006569;28;20037;-90
2022/04/21 10:19:01;;;;;;;2.60;0.57;;;15.60;63.70;;;;;;5014601;28;20145;-90
2022/04/21 10:21:42;;;;;;;2.17;0.68;;;15.70;62.30;;;;;;5015954;28;20032;-90
2022/04/21 10:24:09;;;;;;;3.35;0.70;;;15.80;61.30;;;;;;5016480;28;20030;-90
2022/04/21 10:26:43;;;;;;;3.00;0.57;;;15.70;61.30;;;;;;5016209;28;20116;-90
2022/04/21 10:29:21;;;;;;;4.78;0.70;;;15.90;63.20;;;;;;5014312;28;20074;-91
2022/04/21 10:31:57;;;;;;;1.30;0.50;;;16.00;61.80;;;;;;5013220;28;20045;-91
2022/04/21 10:34:34;;;;;;;2.55;0.68;;;16.00;60.10;;;;;;4997346;28;20545;-90
2022/04/21 10:37:17;;;;;;;1.70;0.50;;;16.00;60.20;;;;;;4999457;28;20424;-90
2022/04/21 10:40:03;;;;;;;8.30;0.60;;;16.00;60.40;;;;;;5016320;28;20030;-88
2022/04/21 10:42:29;;;;;;;2.88;0.70;;;16.10;60.20;;;;;;5009562;28;20025;-89
2022/04/21 10:44:55;;;;;;;2.97;0.50;;;16.10;58.70;;;;;;5015198;28;20033;-90
2022/04/21 10:47:33;;;;;;;2.15;0.93;;;16.00;59.60;;;;;;5000946;28;20496;-90
2022/04/21 10:50:01;;;;;;;2.83;0.70;;;16.20;60.00;;;;;;5002019;28;20064;-90
2022/04/21 10:57:53;;;;;;;1.90;0.60;;;16.20;58.30;;;;;;5013033;28;20041;-90
2022/04/21 11:00:30;;;;;;;3.03;0.70;;;16.10;58.40;;;;;;5014944;28;20136;-88
2022/04/21 11:03:01;;;;;;;2.80;0.70;;;16.20;57.70;;;;;;5015180;28;20037;-89
2022/04/21 11:05:31;;;;;;;3.13;0.70;;;16.10;58.10;;;;;;5014969;28;20088;-88
2022/04/21 11:08:14;;;;;;;4.07;0.70;;;16.10;57.60;;;;;;5015033;28;20038;-90
2022/04/21 11:10:44;;;;;;;3.85;0.60;;;16.20;58.00;;;;;;5014662;28;20064;-90
2022/04/21 11:13:16;;;;;;;4.40;0.60;;;16.20;57.90;;;;;;5014370;28;20033;-88
2022/04/21 11:15:45;;;;;;;;;;;16.20;58.10;;;;;;4995531;28;20121;-89
2022/04/21 11:18:15;;;;;;;2.78;0.60;;;16.30;57.50;;;;;;5015100;28;19909;-90
2022/04/21 11:20:47;;;;;;;1.88;0.70;;;16.40;58.20;;;;;;5015326;28;20026;-90
2022/04/21 11:23:45;;;;;;;1.75;0.65;;;16.50;57.30;;;;;;5019083;28;20040;-90
2022/04/21 11:26:11;;;;;;;1.95;0.88;;;16.60;58.10;;;;;;5018578;28;20030;-90
2022/04/21 11:28:46;;;;;;;2.85;0.68;;;16.60;56.50;;;;;;5020591;28;20021;-89
2022/04/21 11:31:13;;;;;;;2.67;0.60;;;16.60;56.00;;;;;;5030481;28;20022;-89
2022/04/21 11:33:40;;;;;;;5.78;0.60;;;16.60;56.70;;;;;;5020001;28;20022;-90
2022/04/21 11:36:11;;;;;;;2.50;0.52;;;16.70;57.00;;;;;;5026418;28;20060;-89
2022/04/21 11:38:40;;;;;;;3.13;0.67;;;16.80;56.60;;;;;;5029339;28;20052;-88
2022/04/21 11:41:10;;;;;;;2.15;0.60;;;16.80;55.10;;;;;;5024913;28;20287;-89
2022/04/21 11:43:36;;;;;;;2.40;0.73;;;16.90;56.10;;;;;;5019126;28;20038;-90
2022/04/21 11:46:04;;;;;;;2.00;0.70;;;17.00;55.60;;;;;;5014209;28;20021;-90
2022/04/21 11:48:33;;;;;;;3.25;0.70;;;17.00;55.60;;;;;;5000295;28;20117;-89
2022/04/21 11:50:59;;;;;;;2.00;0.57;;;17.10;54.80;;;;;;5014390;28;20514;-89
2022/04/21 11:53:28;;;;;;;1.98;0.77;;;17.20;54.20;;;;;;5011021;28;20022;-89
2022/04/21 11:55:54;;;;;;;3.00;0.82;;;17.10;53.90;;;;;;5031473;28;20025;-89
2022/04/21 11:58:30;;;;;;;7.10;0.90;;;16.80;54.10;;;;;;5024746;28;20029;-90
2022/04/21 12:06:46;;;;;;;5.07;0.73;;;17.10;55.20;;;;;;5031821;28;20048;-86
2022/04/21 12:09:20;;;;;;;1.88;0.70;;;17.20;54.70;;;;;;5017030;28;20044;-89
2022/04/21 12:11:54;;;;;;;2.67;0.70;;;17.40;55.10;;;;;;5013308;28;20018;-89
2022/04/21 12:14:20;;;;;;;2.45;0.80;;;17.50;55.20;;;;;;5035464;28;20029;-90
2022/04/21 12:16:53;;;;;;;5.45;0.80;;;17.60;55.00;;;;;;5022895;28;20022;-88
2022/04/21 12:19:42;;;;;;;2.58;0.60;;;17.60;54.50;;;;;;5016384;28;20033;-89
2022/04/21 12:22:08;;;;;;;3.22;1.40;;;17.60;55.00;;;;;;5018450;28;20417;-89
2022/04/21 12:24:47;;;;;;;4.97;1.13;;;17.50;54.40;;;;;;5018527;28;20120;-89
2022/04/21 12:27:17;;;;;;;2.28;0.93;;;17.40;54.70;;;;;;5004101;28;20026;-90
2022/04/21 12:30:00;;;;;;;3.78;0.80;;;17.40;55.30;;;;;;5018186;28;20029;-89
2022/04/21 12:32:31;;;;;;;2.22;0.90;;;17.50;56.00;;;;;;5020449;28;20029;-90
2022/04/21 12:34:58;;;;;;;3.50;0.77;;;17.60;55.70;;;;;;5018303;28;20449;-90
2022/04/21 12:37:28;;;;;;;2.75;0.75;;;17.80;55.90;;;;;;5015829;28;20021;-89
2022/04/21 12:39:55;;;;;;;2.10;1.08;;;17.70;55.60;;;;;;5018618;28;20021;-89
2022/04/21 12:42:21;;;;;;;2.00;0.60;;;17.70;56.30;;;;;;5018770;28;20030;-89
2022/04/21 12:44:48;;;;;;;3.22;0.80;;;17.90;55.50;;;;;;5018003;28;20041;-89
2022/04/21 12:47:17;;;;;;;4.60;1.35;;;18.00;54.20;;;;;;5029338;28;20079;-89
2022/04/21 12:50:07;;;;;;;3.95;0.85;;;18.10;53.10;;;;;;5034117;28;20473;-89
2022/04/21 12:52:40;;;;;;;4.13;0.90;;;18.10;53.50;;;;;;5002185;28;20063;-90
2022/04/21 12:55:18;;;;;;;2.42;1.00;;;18.20;53.20;;;;;;5016313;28;20089;-91
2022/04/21 12:58:07;;;;;;;2.13;1.00;;;18.20;53.20;;;;;;5007306;28;20072;-90
2022/04/21 13:00:34;;;;;;;9.00;1.27;;;18.30;53.30;;;;;;5011738;28;20390;-91
2022/04/21 13:03:01;;;;;;;6.28;1.15;;;18.20;53.30;;;;;;5016879;28;20075;-91
2022/04/21 13:05:27;;;;;;;5.82;1.20;;;18.30;54.10;;;;;;5025350;28;20033;-89
2022/04/21 13:07:53;;;;;;;3.88;1.27;;;18.50;54.30;;;;;;5017241;28;20025;-90
2022/04/21 13:10:21;;;;;;;2.30;1.30;;;18.70;54.10;;;;;;5021773;28;20018;-89
2022/04/21 13:12:47;;;;;;;5.63;1.77;;;18.70;53.60;;;;;;5033920;28;20022;-90
2022/04/21 13:15:13;;;;;;;3.20;1.30;;;18.70;54.10;;;;;;5026182;28;20030;-91
2022/04/21 13:17:40;;;;;;;3.38;1.42;;;18.70;54.90;;;;;;5013353;28;20026;-91
2022/04/21 13:20:06;;;;;;;5.88;1.40;;;18.70;54.90;;;;;;5026439;28;20036;-91
2022/04/21 13:22:32;;;;;;;3.40;1.60;;;18.70;55.20;;;;;;5017171;28;20021;-90
2022/04/21 13:24:58;;;;;;;5.28;2.08;;;18.60;55.10;;;;;;5012044;28;20041;-90
2022/04/21 13:27:26;;;;;;;4.97;1.88;;;18.50;55.70;;;;;;5010427;28;20049;-89
2022/04/21 13:29:51;;;;;;;6.22;1.40;;;18.30;56.00;;;;;;5015132;28;20509;-89
2022/04/21 13:35:03;;;;;;;6.63;1.42;;;18.10;56.70;;;;;;5027213;28;20087;-90
2022/04/21 13:37:29;;;;;;;7.03;1.77;;;18.20;57.80;;;;;;5028649;28;20026;-90
2022/04/21 13:39:55;;;;;;;4.63;1.50;;;18.40;57.90;;;;;;5005678;28;20052;-90
2022/04/21 13:42:20;;;;;;;3.45;1.77;;;18.50;57.50;;;;;;5016486;28;20421;-90
2022/04/21 13:44:46;;;;;;;2.45;1.50;;;18.50;56.60;;;;;;5011487;28;20029;-90
2022/04/21 13:47:11;;;;;;;5.70;2.38;;;18.60;56.80;;;;;;5016635;28;20121;-90
2022/04/21 13:49:38;;;;;;;3.55;1.60;;;18.70;56.60;;;;;;5016754;28;20021;-90
2022/04/21 13:52:04;;;;;;;3.20;1.40;;;18.70;56.50;;;;;;5016881;28;20026;-90